Time;durP1;ratioP1;P1;durP2;ratioP2;P2;SDS_P1;SDS_P2;PMS_P1;PMS_P2;Temp;Humidity;BMP_temperature;BMP_pressure;BME280_temperature;BME280_humidity;BME280_pressure;Samples;Min_cycle;Max_cycle;Signal;HPM_P1;HPM_P2
2023/12/21 00:03:02;;;;;;;10.77;5.15;;;;;;;17.25;56.79;96677.19;10406880;28;20065;-29
2023/12/21 00:08:03;;;;;;;7.55;4.28;;;;;;;17.22;56.39;96670.44;10402027;28;20127;-29
2023/12/21 00:13:03;;;;;;;10.55;3.97;;;;;;;17.25;56.58;96687.31;10404376;28;20037;-30
2023/12/21 00:18:04;;;;;;;9.90;4.40;;;;;;;17.27;56.76;96667.91;10402464;28;20044;-30
2023/12/21 00:23:04;;;;;;;8.27;4.18;;;;;;;17.26;56.51;96666.25;10405830;28;20041;-29
2023/12/21 00:28:05;;;;;;;5.60;3.93;;;;;;;17.23;56.74;96649.34;10402402;28;20975;-30
2023/12/21 00:33:05;;;;;;;8.93;5.05;;;;;;;17.26;56.46;96671.28;10402815;28;20303;-30
2023/12/21 00:38:06;;;;;;;7.67;3.97;;;;;;;17.25;57.05;96665.38;10403734;28;20043;-30
2023/12/21 00:43:06;;;;;;;6.10;3.87;;;;;;;17.25;56.61;96669.63;10403540;28;20519;-30
2023/12/21 00:48:07;;;;;;;5.47;3.53;;;;;;;17.24;56.54;96652.75;10403934;28;20292;-30
2023/12/21 00:53:07;;;;;;;6.75;3.65;;;;;;;17.22;56.60;96650.19;10396874;28;20045;-30
2023/12/21 00:58:07;;;;;;;9.82;4.65;;;;;;;17.24;56.91;96661.16;10397269;28;20037;-33
2023/12/21 01:03:08;;;;;;;6.20;3.60;;;;;;;17.25;56.43;96675.50;10401878;28;20056;-30
2023/12/21 01:08:08;;;;;;;7.67;4.23;;;;;;;17.25;56.49;96650.19;10399526;28;20033;-30
2023/12/21 01:13:09;;;;;;;6.73;4.10;;;;;;;17.22;56.64;96629.09;10403890;28;20042;-30
2023/12/21 01:18:09;;;;;;;6.23;4.00;;;;;;;17.25;56.49;96654.44;10396707;28;20037;-30
2023/12/21 01:23:09;;;;;;;7.80;4.17;;;;;;;17.26;56.33;96646.00;10404625;28;20033;-30
2023/12/21 01:28:10;;;;;;;7.20;3.20;;;;;;;17.25;56.46;96626.59;10397969;28;20406;-29
2023/12/21 01:33:10;;;;;;;6.07;3.97;;;;;;;17.23;56.32;96619.00;10396988;28;22057;-30
2023/12/21 01:38:10;;;;;;;6.23;3.27;;;;;;;17.25;56.59;96629.13;10404097;28;20404;-30
2023/12/21 01:43:10;;;;;;;9.27;3.33;;;;;;;17.25;56.65;96601.31;10400024;28;20641;-30
2023/12/21 01:48:11;;;;;;;7.77;3.83;;;;;;;17.23;56.63;96610.56;10401779;28;20042;-30
2023/12/21 01:53:13;;;;;;;6.85;3.70;;;;;;;17.25;56.43;96603.81;10402646;28;20041;-32
2023/12/21 01:58:14;;;;;;;6.70;3.28;;;;;;;17.24;56.25;96597.91;10398728;28;20036;-31
2023/12/21 02:03:16;;;;;;;6.13;3.92;;;;;;;17.23;56.40;96588.63;10400885;28;20538;-30
2023/12/21 02:08:16;;;;;;;7.00;3.20;;;;;;;17.24;56.34;96574.31;10399442;28;20029;-30
2023/12/21 02:13:16;;;;;;;6.50;3.33;;;;;;;17.26;56.34;96577.69;10395073;28;20038;-31
2023/12/21 02:18:17;;;;;;;7.97;4.03;;;;;;;17.23;56.29;96550.69;10399021;28;20675;-30
2023/12/21 02:23:19;;;;;;;5.85;3.30;;;;;;;17.25;56.30;96548.16;10398925;28;20045;-30
2023/12/21 02:28:19;;;;;;;5.50;3.17;;;;;;;17.24;56.13;96531.31;10402202;28;20041;-30
2023/12/21 02:33:20;;;;;;;7.50;3.27;;;;;;;17.25;56.56;96525.41;10400055;28;20046;-31
2023/12/21 02:38:20;;;;;;;8.87;3.73;;;;;;;17.18;56.40;96506.00;10400796;28;20041;-30
2023/12/21 02:43:20;;;;;;;7.27;3.50;;;;;;;17.24;56.24;96506.00;10395535;28;20377;-30
2023/12/21 02:48:21;;;;;;;6.03;3.40;;;;;;;17.23;56.43;96502.63;10392813;28;20526;-31
2023/12/21 02:53:21;;;;;;;4.17;2.57;;;;;;;17.21;56.37;96485.75;10407145;28;20060;-30
2023/12/21 02:58:23;;;;;;;7.00;3.20;;;;;;;17.23;56.69;96474.78;10403909;28;20048;-29
2023/12/21 03:03:24;;;;;;;5.35;2.92;;;;;;;17.22;56.28;96470.56;10406560;28;20038;-31
2023/12/21 03:08:24;;;;;;;6.17;2.90;;;;;;;17.23;56.29;96456.25;10407286;28;20091;-30
2023/12/21 03:13:24;;;;;;;6.17;2.47;;;;;;;17.26;55.98;96438.53;10401826;28;20295;-30
2023/12/21 03:18:25;;;;;;;3.80;2.27;;;;;;;17.21;56.04;96408.19;10406238;28;20037;-30
2023/12/21 03:23:25;;;;;;;7.90;2.97;;;;;;;17.26;55.64;96387.94;10411269;28;20038;-30
2023/12/21 03:28:25;;;;;;;6.53;2.93;;;;;;;17.27;55.91;96404.81;10407103;28;20124;-30
2023/12/21 03:33:26;;;;;;;6.20;2.83;;;;;;;17.29;55.98;96413.22;10406906;28;20464;-30
2023/12/21 03:38:26;;;;;;;4.57;2.70;;;;;;;17.28;56.11;96406.47;10409349;28;20727;-30
2023/12/21 03:43:26;;;;;;;4.30;2.60;;;;;;;17.28;56.16;96401.41;10406694;28;20041;-30
2023/12/21 03:48:27;;;;;;;4.93;2.47;;;;;;;17.26;55.53;96378.66;10404422;28;20051;-30
2023/12/21 03:53:27;;;;;;;4.93;2.67;;;;;;;17.26;55.45;96362.66;10409183;28;20288;-30
2023/12/21 03:58:28;;;;;;;5.07;3.05;;;;;;;17.25;56.24;96371.06;10401406;28;20041;-31
2023/12/21 04:03:28;;;;;;;6.33;3.53;;;;;;;17.23;56.18;96373.59;10403937;28;20043;-30
2023/12/21 04:08:28;;;;;;;7.30;2.90;;;;;;;17.24;56.00;96374.47;10408568;28;20298;-30
2023/12/21 04:13:28;;;;;;;5.13;2.80;;;;;;;17.18;55.89;96344.94;10400679;28;20048;-30
2023/12/21 04:18:30;;;;;;;7.10;2.60;;;;;;;17.26;55.69;96348.28;10404254;28;20413;-30
2023/12/21 04:23:30;;;;;;;7.13;2.70;;;;;;;17.25;55.82;96360.97;10408884;28;20040;-30
2023/12/21 04:28:32;;;;;;;5.07;2.63;;;;;;;17.26;55.89;96367.69;10406517;28;20488;-31
2023/12/21 04:33:33;;;;;;;7.07;3.03;;;;;;;17.22;55.91;96340.69;10404950;28;20038;-31
2023/12/21 04:38:33;;;;;;;4.43;2.37;;;;;;;17.23;55.99;96337.34;10406926;28;20058;-30
2023/12/21 04:43:33;;;;;;;11.53;3.13;;;;;;;17.27;55.71;96334.81;10393271;28;20295;-30
2023/12/21 04:48:34;;;;;;;4.77;2.10;;;;;;;17.30;55.75;96314.56;10395133;28;20033;-30
2023/12/21 04:53:34;;;;;;;4.00;2.13;;;;;;;17.30;56.16;96309.50;10403766;28;20045;-30
2023/12/21 04:58:35;;;;;;;3.20;2.10;;;;;;;17.31;55.44;96320.47;10388944;28;20299;-30
2023/12/21 05:03:35;;;;;;;6.10;2.83;;;;;;;17.32;55.36;96281.69;10395126;28;20025;-31
2023/12/21 05:08:36;;;;;;;3.33;2.17;;;;;;;17.35;54.86;96296.84;10397586;28;20030;-30
2023/12/21 05:13:36;;;;;;;5.17;2.87;;;;;;;17.34;55.14;96290.94;10391125;28;20040;-30
2023/12/21 05:18:37;;;;;;;3.93;2.00;;;;;;;17.34;55.99;96287.56;10393983;28;20053;-30
2023/12/21 05:23:37;;;;;;;2.63;1.95;;;;;;;17.35;55.45;96295.16;10398645;28;20037;-31
2023/12/21 05:28:39;;;;;;;7.27;1.90;;;;;;;17.35;55.31;96291.78;10404702;28;20043;-30
2023/12/21 05:33:39;;;;;;;3.55;2.17;;;;;;;17.36;54.99;96281.69;10404801;28;20041;-29
2023/12/21 05:38:40;;;;;;;3.03;1.88;;;;;;;17.36;55.13;96275.78;10403270;28;20041;-30
2023/12/21 05:43:41;;;;;;;3.10;1.90;;;;;;;17.38;54.97;96286.75;10397431;28;20033;-30
2023/12/21 05:48:41;;;;;;;3.53;2.08;;;;;;;17.34;55.06;96297.69;10397533;28;20108;-31
2023/12/21 05:53:41;;;;;;;3.20;1.80;;;;;;;17.35;55.63;96292.63;10389019;28;20052;-29
2023/12/21 05:58:42;;;;;;;11.40;2.57;;;;;;;17.33;55.70;96308.66;10390584;28;20036;-30
2023/12/21 06:03:42;;;;;;;4.37;2.33;;;;;;;17.32;55.24;96290.09;10393080;28;20029;-30
2023/12/21 06:08:42;;;;;;;9.82;2.78;;;;;;;17.26;56.20;96274.91;10399020;28;20500;-30
2023/12/21 06:13:43;;;;;;;14.13;3.87;;;;;;;17.33;56.18;96285.91;10398903;28;20041;-29
2023/12/21 06:18:43;;;;;;;5.57;3.50;;;;;;;17.35;55.38;96276.59;10396469;28;20048;-28
2023/12/21 06:23:43;;;;;;;9.57;4.07;;;;;;;17.32;55.57;96279.16;10395933;28;20045;-29
2023/12/21 06:28:44;;;;;;;14.00;3.83;;;;;;;17.32;54.61;96269.03;10401043;28;20048;-28
2023/12/21 06:33:44;;;;;;;19.30;5.60;;;;;;;17.31;54.41;96269.88;10400759;28;20296;-29
2023/12/21 06:38:44;;;;;;;15.48;5.25;;;;;;;17.34;54.30;96254.69;10403532;28;20056;-29
2023/12/21 06:43:45;;;;;;;15.27;4.97;;;;;;;17.35;54.86;96238.66;10403071;28;20633;-30
2023/12/21 06:48:45;;;;;;;12.65;4.93;;;;;;;17.34;54.32;96211.66;10398582;28;20095;-30
2023/12/21 06:53:46;;;;;;;12.77;4.67;;;;;;;17.33;54.28;96213.34;10403849;28;20107;-30
2023/12/21 06:58:46;;;;;;;16.43;4.43;;;;;;;17.31;54.98;96209.16;10402640;28;20488;-30
2023/12/21 07:03:47;;;;;;;11.23;4.40;;;;;;;17.34;54.40;96212.50;10398152;28;20343;-29
2023/12/21 07:08:47;;;;;;;10.82;4.30;;;;;;;17.32;54.60;96210.84;10402842;28;20306;-29
2023/12/21 07:13:47;;;;;;;9.90;4.73;;;;;;;17.30;55.14;96207.44;10397278;28;20049;-30
2023/12/21 07:18:48;;;;;;;11.43;4.10;;;;;;;17.29;54.97;96209.16;10399912;28;20604;-28
2023/12/21 07:23:51;;;;;;;9.60;4.25;;;;;;;17.28;54.93;96204.94;10405337;28;20033;-28
2023/12/21 07:28:51;;;;;;;11.63;5.43;;;;;;;17.28;55.28;96219.28;10405589;28;20048;-30
2023/12/21 07:33:51;;;;;;;14.10;4.70;;;;;;;17.28;54.81;96199.03;10402132;28;20499;-29
2023/12/21 07:38:52;;;;;;;8.90;4.57;;;;;;;17.15;55.00;96187.28;10409052;28;20127;-29
2023/12/21 07:43:52;;;;;;;9.50;3.72;;;;;;;17.26;54.68;96195.69;10408706;28;20725;-30
2023/12/21 07:48:53;;;;;;;10.60;4.27;;;;;;;17.24;55.23;96188.06;10404524;28;20045;-31
2023/12/21 07:53:53;;;;;;;7.70;4.05;;;;;;;17.26;55.22;96193.16;10416050;28;20157;-29
2023/12/21 07:58:54;;;;;;;9.23;4.10;;;;;;;17.25;55.32;96168.69;10412645;28;20048;-30
2023/12/21 08:03:54;;;;;;;7.22;3.60;;;;;;;17.22;55.70;96153.50;10407747;28;20029;-28
2023/12/21 08:08:54;;;;;;;10.10;5.03;;;;;;;17.22;55.18;96139.19;10409610;28;20051;-29
2023/12/21 08:13:55;;;;;;;9.77;3.67;;;;;;;17.21;55.07;96139.19;10407931;28;20056;-29
2023/12/21 08:18:55;;;;;;;6.82;3.30;;;;;;;17.13;55.35;96149.34;10405343;28;20041;-30
2023/12/21 08:23:56;;;;;;;7.10;3.60;;;;;;;17.22;55.20;96166.16;10408963;28;20523;-29
2023/12/21 08:28:56;;;;;;;9.60;3.90;;;;;;;17.23;55.25;96193.16;10403392;28;20543;-29
2023/12/21 08:33:56;;;;;;;7.87;3.20;;;;;;;17.16;55.47;96186.44;10407711;28;20033;-29
2023/12/21 08:38:57;;;;;;;7.30;3.47;;;;;;;17.19;55.44;96189.81;10408086;28;20060;-31
2023/12/21 08:43:57;;;;;;;5.55;3.30;;;;;;;17.18;54.85;96183.06;10409716;28;20048;-30
2023/12/21 08:48:58;;;;;;;6.63;3.63;;;;;;;17.20;55.19;96200.75;10401537;28;20116;-30
2023/12/21 08:53:58;;;;;;;7.73;3.50;;;;;;;17.20;55.36;96201.59;10407623;28;20300;-30
2023/12/21 08:58:58;;;;;;;6.60;3.70;;;;;;;17.17;55.24;96170.41;10410417;28;20128;-29
2023/12/21 09:03:59;;;;;;;5.93;3.43;;;;;;;17.16;55.07;96166.22;10401938;28;20057;-29
2023/12/21 09:08:59;;;;;;;6.23;3.70;;;;;;;17.18;55.13;96182.22;10412241;28;20300;-30
2023/12/21 09:13:59;;;;;;;4.05;2.55;;;;;;;17.10;55.31;96156.09;10403922;28;20820;-29
2023/12/21 09:19:00;;;;;;;4.90;2.87;;;;;;;17.15;54.91;96159.47;10402231;28;20551;-29
2023/12/21 09:24:00;;;;;;;4.82;3.00;;;;;;;17.19;55.35;96153.53;10397535;28;20064;-30
2023/12/21 09:29:04;;;;;;;5.60;3.00;;;;;;;17.17;55.02;96138.34;10399397;28;20043;-29
2023/12/21 09:34:04;;;;;;;4.78;3.20;;;;;;;17.19;55.26;96131.63;10405108;28;20037;-30
2023/12/21 09:39:06;;;;;;;14.65;3.28;;;;;;;17.20;54.98;96134.97;10410175;28;20491;-30
2023/12/21 09:44:11;;;;;;;5.05;2.78;;;;;;;17.17;55.04;96140.88;10402478;28;20029;-31
2023/12/21 09:49:16;;;;;;;7.18;4.07;;;;;;;17.18;55.23;96111.38;10404052;28;20032;-30
2023/12/21 09:54:17;;;;;;;5.88;2.95;;;;;;;17.17;55.31;96100.41;10405351;28;20116;-29
2023/12/21 09:59:19;;;;;;;5.82;3.15;;;;;;;17.12;55.13;96094.56;10404107;28;20060;-30
2023/12/21 10:04:19;;;;;;;5.68;2.90;;;;;;;17.15;55.08;96076.81;10401306;28;20029;-30
2023/12/21 10:09:20;;;;;;;5.70;2.80;;;;;;;17.18;54.90;96063.34;10403937;28;20025;-30
2023/12/21 10:14:21;;;;;;;3.83;2.63;;;;;;;17.13;55.00;96050.72;10401314;28;20120;-29
2023/12/21 10:19:21;;;;;;;5.35;2.63;;;;;;;17.14;55.15;96043.97;10403211;28;20042;-29
2023/12/21 10:24:22;;;;;;;4.97;2.83;;;;;;;17.15;54.90;96022.91;10409014;28;20037;-30
2023/12/21 10:29:25;;;;;;;5.82;2.85;;;;;;;17.13;54.86;96011.91;10397338;28;20121;-30
2023/12/21 10:34:25;;;;;;;4.65;2.30;;;;;;;17.13;54.76;96033.00;10403031;28;20088;-30
2023/12/21 10:39:26;;;;;;;2.97;2.23;;;;;;;17.08;54.98;96026.31;10404005;28;20036;-29
2023/12/21 10:44:27;;;;;;;3.95;2.70;;;;;;;17.06;55.00;96005.25;10401335;28;20116;-29
2023/12/21 10:49:27;;;;;;;5.68;3.38;;;;;;;17.11;55.10;95961.38;10406739;28;20399;-29
2023/12/21 10:54:29;;;;;;;2.85;2.08;;;;;;;17.13;54.90;95936.06;10406944;28;20037;-30
2023/12/21 10:59:30;;;;;;;4.05;2.72;;;;;;;17.10;54.98;95920.91;10402856;28;20029;-30
2023/12/21 11:04:31;;;;;;;3.70;2.20;;;;;;;17.08;55.07;95922.63;10406605;28;20045;-30
2023/12/21 11:09:33;;;;;;;3.47;2.30;;;;;;;17.11;54.96;95920.06;10402884;28;20060;-29
2023/12/21 11:14:34;;;;;;;3.95;2.50;;;;;;;17.13;54.84;95868.63;10409398;28;20035;-30
2023/12/21 11:19:38;;;;;;;2.78;2.00;;;;;;;17.19;54.29;95861.00;10409409;28;20035;-29
2023/12/21 11:24:38;;;;;;;5.65;3.15;;;;;;;17.22;53.98;95870.22;10410987;28;20043;-30
2023/12/21 11:29:40;;;;;;;4.05;2.92;;;;;;;17.25;54.14;95870.22;10409265;28;20043;-29
2023/12/21 11:34:41;;;;;;;3.42;2.25;;;;;;;17.17;54.09;95856.78;10402866;28;20702;-30
2023/12/21 11:39:41;;;;;;;7.80;2.50;;;;;;;17.24;54.28;95844.06;10410374;28;20021;-29
2023/12/21 11:44:49;;;;;;;6.28;2.20;;;;;;;17.29;54.30;95862.59;10406859;28;20350;-29
2023/12/21 11:49:49;;;;;;;5.93;2.35;;;;;;;17.16;54.04;95835.72;10411016;28;20026;-29
2023/12/21 11:54:50;;;;;;;4.57;2.30;;;;;;;17.29;54.49;95871.84;10409899;28;20040;-30
2023/12/21 12:00:06;;;;;;;6.05;2.85;;;;;;;17.31;54.20;95830.50;10406707;28;20022;-29
2023/12/21 12:05:07;;;;;;;6.90;2.47;;;;;;;17.33;53.98;95818.69;10407769;28;20041;-30
2023/12/21 12:10:08;;;;;;;5.68;2.63;;;;;;;17.33;54.22;95821.22;10406954;28;20604;-30
2023/12/21 12:15:08;;;;;;;3.92;2.55;;;;;;;17.33;54.46;95838.09;10409423;28;20098;-31
2023/12/21 12:20:10;;;;;;;4.47;2.58;;;;;;;17.32;54.73;95801.00;10406411;28;20037;-33
2023/12/21 12:25:10;;;;;;;25.60;7.15;;;;;;;17.38;54.66;95790.84;10408479;28;20496;-30
2023/12/21 12:30:12;;;;;;;5.38;3.35;;;;;;;17.35;54.15;95765.53;10403161;28;20053;-30
2023/12/21 12:35:13;;;;;;;6.60;2.70;;;;;;;17.42;53.01;95759.59;10406129;28;20506;-29
2023/12/21 12:40:13;;;;;;;4.25;2.80;;;;;;;17.43;52.69;95753.69;10411009;28;20043;-29
2023/12/21 12:45:14;;;;;;;10.10;2.67;;;;;;;17.46;53.06;95759.56;10405803;28;20454;-29
2023/12/21 12:50:14;;;;;;;8.60;3.50;;;;;;;17.46;53.94;95735.94;10406939;28;20307;-29
2023/12/21 12:55:15;;;;;;;7.00;2.90;;;;;;;17.44;53.99;95719.94;10404396;28;20782;-29
2023/12/21 13:00:19;;;;;;;11.70;2.67;;;;;;;17.46;54.02;95687.84;10407462;28;20415;-30
2023/12/21 13:05:20;;;;;;;7.72;3.05;;;;;;;17.45;54.05;95696.31;10395324;28;20033;-30
2023/12/21 13:10:20;;;;;;;6.70;2.55;;;;;;;17.49;53.90;95690.38;10410404;28;20098;-35
2023/12/21 13:15:21;;;;;;;8.20;3.05;;;;;;;17.46;53.95;95660.88;10410948;28;20086;-29
2023/12/21 13:20:21;;;;;;;4.57;2.60;;;;;;;17.49;53.61;95677.72;10436200;28;20110;-30
2023/12/21 13:25:24;;;;;;;4.03;1.87;;;;;;;17.38;52.97;95674.47;10413618;28;20051;-30
2023/12/21 13:30:25;;;;;;;4.10;2.13;;;;;;;17.34;53.06;95672.81;10376601;28;20311;-29
2023/12/21 13:35:26;;;;;;;6.00;1.77;;;;;;;17.27;53.21;95654.34;10371397;28;20095;-30
2023/12/21 13:40:27;;;;;;;5.70;1.98;;;;;;;17.20;52.20;95655.28;10371953;28;20044;-32
2023/12/21 13:45:28;;;;;;;5.43;2.35;;;;;;;17.37;52.66;95644.97;10374599;28;20115;-29
2023/12/21 13:50:28;;;;;;;3.38;1.40;;;;;;;17.38;52.90;95633.97;10378990;28;20033;-31
2023/12/21 13:55:30;;;;;;;3.07;1.23;;;;;;;17.45;52.36;95645.69;10364856;28;20038;-30
2023/12/21 14:00:30;;;;;;;4.32;1.65;;;;;;;17.46;52.98;95655.81;10366943;28;20033;-30
2023/12/21 14:05:30;;;;;;;2.83;1.40;;;;;;;17.45;53.07;95646.56;10363151;28;20038;-29
2023/12/21 14:10:31;;;;;;;4.23;2.10;;;;;;;17.46;52.79;95629.66;10360773;28;20114;-30
2023/12/21 14:15:32;;;;;;;6.20;1.63;;;;;;;17.46;52.94;95601.81;10363325;28;20577;-30
2023/12/21 14:20:33;;;;;;;7.00;1.35;;;;;;;17.48;52.70;95587.50;10370644;28;20122;-29
2023/12/21 14:25:34;;;;;;;3.70;1.53;;;;;;;17.45;53.23;95611.13;10360976;28;20029;-30
2023/12/21 14:30:35;;;;;;;3.42;1.02;;;;;;;17.41;52.72;95584.19;10386418;28;20029;-29
2023/12/21 14:35:35;;;;;;;3.43;1.53;;;;;;;17.46;53.13;95596.78;10396113;28;20564;-29
2023/12/21 14:40:36;;;;;;;3.65;1.35;;;;;;;17.51;52.71;95595.03;10367750;28;20116;-30
2023/12/21 14:45:36;;;;;;;3.22;0.95;;;;;;;17.38;53.79;95588.44;10363925;28;20032;-29
2023/12/21 14:50:36;;;;;;;2.10;1.17;;;;;;;17.33;54.17;95593.53;10358388;28;20060;-29
2023/12/21 14:55:40;;;;;;;1.80;1.30;;;;;;;17.36;53.89;95590.16;10360900;28;20100;-29
2023/12/21 15:00:40;;;;;;;2.42;1.33;;;;;;;17.39;53.70;95569.88;10363764;28;20495;-29
2023/12/21 15:05:41;;;;;;;2.97;1.10;;;;;;;17.35;53.83;95553.91;10359453;28;20040;-29
2023/12/21 15:10:43;;;;;;;3.13;1.03;;;;;;;17.30;54.14;95524.44;10361080;28;20296;-29
2023/12/21 15:15:44;;;;;;;2.13;1.10;;;;;;;17.32;53.96;95569.09;10371037;28;20044;-30
2023/12/21 15:20:44;;;;;;;3.05;0.88;;;;;;;17.30;54.07;95549.75;10395122;28;20034;-29
2023/12/21 15:25:44;;;;;;;1.43;1.00;;;;;;;17.29;54.25;95558.19;10397698;28;20107;-29
2023/12/21 15:30:45;;;;;;;2.37;1.20;;;;;;;17.29;54.05;95573.38;10394631;28;20239;-30
2023/12/21 15:35:46;;;;;;;2.15;0.80;;;;;;;17.28;54.26;95557.38;10389203;28;20033;-29
2023/12/21 15:40:46;;;;;;;1.17;0.63;;;;;;;17.30;54.19;95549.75;10393180;28;20033;-30
2023/12/21 15:45:46;;;;;;;2.70;1.63;;;;;;;17.33;54.20;95554.78;10386275;28;20044;-30
2023/12/21 15:50:48;;;;;;;2.03;0.90;;;;;;;17.32;54.39;95548.88;10389782;28;20379;-29
2023/12/21 15:55:49;;;;;;;2.83;1.02;;;;;;;17.33;54.54;95534.53;10389695;28;20099;-29
2023/12/21 16:00:50;;;;;;;1.80;1.00;;;;;;;17.26;54.28;95518.59;10398898;28;20087;-29
2023/12/21 16:05:50;;;;;;;1.85;1.23;;;;;;;17.34;54.46;95536.22;10398697;28;20064;-31
2023/12/21 16:10:53;;;;;;;1.33;1.00;;;;;;;17.36;54.61;95532.00;10402334;28;20137;-30
2023/12/21 16:15:53;;;;;;;2.03;1.33;;;;;;;17.36;54.55;95554.75;10375762;28;20033;-30
2023/12/21 16:20:53;;;;;;;3.33;1.33;;;;;;;17.38;53.53;95526.06;10370061;28;20068;-29
2023/12/21 16:25:54;;;;;;;3.50;1.20;;;;;;;17.48;53.54;95514.13;10367189;28;20037;-31
2023/12/21 16:30:55;;;;;;;2.83;1.30;;;;;;;17.51;52.94;95509.00;10365008;28;20323;-31
2023/12/21 16:35:56;;;;;;;3.08;1.50;;;;;;;17.53;52.30;95517.38;10367286;28;20406;-30
2023/12/21 16:40:57;;;;;;;2.95;1.38;;;;;;;17.52;52.69;95510.66;10364817;28;20082;-32
2023/12/21 16:45:59;;;;;;;5.22;1.60;;;;;;;17.59;52.42;95522.38;10350292;28;20087;-32
2023/12/21 16:51:00;;;;;;;5.25;1.98;;;;;;;17.61;52.63;95491.13;10353226;28;20048;-32
2023/12/21 16:56:00;;;;;;;6.73;2.20;;;;;;;17.61;52.95;95501.25;10350876;28;20033;-30
2023/12/21 17:01:00;;;;;;;5.30;2.60;;;;;;;17.56;52.66;95497.13;10353251;28;20034;-30
2023/12/21 17:06:01;;;;;;;3.47;1.93;;;;;;;17.57;52.84;95486.13;10346717;28;20175;-30
2023/12/21 17:11:01;;;;;;;6.00;1.77;;;;;;;17.57;54.20;95499.59;10354286;28;20288;-31
2023/12/21 17:16:03;;;;;;;3.87;2.03;;;;;;;17.62;53.32;95497.00;10343927;28;20365;-31
2023/12/21 17:21:03;;;;;;;8.02;1.80;;;;;;;17.64;53.32;95510.47;10363084;28;20417;-30
2023/12/21 17:26:08;;;;;;;5.27;1.70;;;;;;;17.61;54.35;95505.44;10398466;28;20080;-29
2023/12/21 17:31:09;;;;;;;5.57;1.70;;;;;;;17.59;54.15;95507.19;10393374;28;20084;-29
2023/12/21 17:36:09;;;;;;;7.13;1.40;;;;;;;17.58;54.16;95506.34;10401637;28;20127;-31
2023/12/21 17:41:09;;;;;;;6.83;1.67;;;;;;;17.55;53.49;95505.53;10398219;28;20037;-29
2023/12/21 17:46:15;;;;;;;5.72;1.10;;;;;;;17.57;53.42;95519.03;10397547;28;20084;-30
2023/12/21 17:51:16;;;;;;;4.57;1.53;;;;;;;17.58;53.94;95496.22;10398511;28;20036;-30
2023/12/21 17:56:16;;;;;;;6.13;1.23;;;;;;;17.65;54.44;95519.75;10399871;28;20282;-29
2023/12/21 18:01:17;;;;;;;3.28;1.50;;;;;;;17.59;54.91;95522.38;10401120;28;20503;-29
2023/12/21 18:06:18;;;;;;;5.78;1.55;;;;;;;17.63;54.06;95519.75;10398527;28;20095;-29
2023/12/21 18:11:19;;;;;;;4.07;1.02;;;;;;;17.62;54.85;95540.88;10397329;28;20116;-29
2023/12/21 18:16:19;;;;;;;3.10;1.30;;;;;;;17.61;54.56;95544.25;10401398;28;20030;-29
2023/12/21 18:21:20;;;;;;;2.25;1.00;;;;;;;17.60;56.20;95550.19;10397376;28;20040;-29
2023/12/21 18:26:20;;;;;;;5.45;1.55;;;;;;;17.60;55.41;95559.47;10400557;28;20094;-29
2023/12/21 18:31:21;;;;;;;8.80;1.80;;;;;;;17.62;55.32;95552.69;10394770;28;20033;-29
2023/12/21 18:36:22;;;;;;;8.20;1.57;;;;;;;17.60;55.35;95539.22;10400883;28;20037;-30
2023/12/21 18:41:22;;;;;;;10.73;1.30;;;;;;;17.54;55.81;95519.06;10398112;28;20798;-30
2023/12/21 18:46:22;;;;;;;4.68;1.45;;;;;;;17.58;55.14;95569.59;10400633;28;20037;-29
2023/12/21 18:51:23;;;;;;;5.20;1.40;;;;;;;17.58;55.80;95567.06;10400629;28;20495;-29
2023/12/21 18:56:24;;;;;;;2.90;1.40;;;;;;;17.58;54.25;95573.84;10395672;28;20033;-29
2023/12/21 19:01:25;;;;;;;3.08;1.25;;;;;;;17.50;54.41;95563.81;10398981;28;20030;-29
2023/12/21 19:06:25;;;;;;;3.88;0.98;;;;;;;17.55;55.83;95564.59;10401596;28;20060;-30
2023/12/21 19:11:26;;;;;;;1.10;0.90;;;;;;;17.57;55.07;95557.00;10393772;28;20033;-30
2023/12/21 19:16:26;;;;;;;1.50;1.20;;;;;;;17.60;55.07;95547.66;10392406;28;20108;-29
2023/12/21 19:21:27;;;;;;;1.80;1.20;;;;;;;17.58;55.10;95536.69;10397471;28;20037;-29
2023/12/21 19:26:27;;;;;;;2.75;1.00;;;;;;;17.61;55.46;95561.13;10399168;28;20651;-29
2023/12/21 19:31:30;;;;;;;3.50;0.90;;;;;;;17.63;54.67;95555.19;10385892;28;20090;-29
2023/12/21 19:36:30;;;;;;;1.85;0.90;;;;;;;17.63;54.77;95575.44;10405604;28;20040;-29
2023/12/21 19:41:31;;;;;;;5.00;0.90;;;;;;;17.65;55.19;95626.84;10407091;28;20048;-29
2023/12/21 19:46:31;;;;;;;1.53;0.90;;;;;;;17.64;55.27;95626.88;10410481;28;20515;-30
2023/12/21 19:51:31;;;;;;;1.70;0.70;;;;;;;17.61;55.33;95621.88;10406239;28;20091;-29
2023/12/21 19:56:32;;;;;;;1.10;1.00;;;;;;;17.64;55.85;95632.78;10402587;28;20495;-30
2023/12/21 20:01:33;;;;;;;2.28;0.90;;;;;;;17.66;55.22;95628.53;10407142;28;20505;-29
2023/12/21 20:06:33;;;;;;;1.60;0.90;;;;;;;17.61;55.10;95617.66;10406450;28;20030;-30
2023/12/21 20:11:33;;;;;;;2.73;0.97;;;;;;;17.64;55.66;95652.19;10406705;28;20491;-30
2023/12/21 20:16:35;;;;;;;1.27;0.53;;;;;;;17.64;55.66;95647.97;10405367;28;20361;-30
2023/12/21 20:21:35;;;;;;;2.22;0.95;;;;;;;17.63;55.77;95650.50;10405477;28;20037;-29
2023/12/21 20:26:35;;;;;;;1.73;0.83;;;;;;;17.66;55.41;95665.69;10403158;28;20036;-29
2023/12/21 20:31:36;;;;;;;3.20;1.23;;;;;;;17.64;55.61;95652.19;10405369;28;20383;-29
2023/12/21 20:36:37;;;;;;;1.30;1.00;;;;;;;17.61;55.90;95637.06;10404578;28;20400;-29
2023/12/21 20:41:37;;;;;;;5.63;1.52;;;;;;;17.64;56.10;95637.00;10404093;28;20488;-30
2023/12/21 20:46:37;;;;;;;5.43;1.70;;;;;;;17.60;56.21;95610.94;10405859;28;20407;-30
2023/12/21 20:51:44;;;;;;;3.47;1.40;;;;;;;17.59;56.58;95609.22;10397636;28;20296;-29
2023/12/21 20:56:47;;;;;;;2.65;1.08;;;;;;;17.60;55.88;95630.31;10404139;28;20048;-31
2023/12/21 21:01:47;;;;;;;4.32;1.17;;;;;;;17.61;55.82;95629.47;10402385;28;20112;-29
2023/12/21 21:06:47;;;;;;;5.77;1.30;;;;;;;17.59;55.82;95609.22;10405511;28;20033;-30
2023/12/21 21:11:48;;;;;;;3.90;1.20;;;;;;;17.61;55.40;95632.84;10398633;28;20031;-30
2023/12/21 21:16:48;;;;;;;3.27;1.27;;;;;;;17.59;55.61;95618.53;10402081;28;20033;-30
2023/12/21 21:21:49;;;;;;;2.63;1.20;;;;;;;17.62;55.61;95639.56;10400652;28;20030;-31
2023/12/21 21:26:49;;;;;;;5.10;1.67;;;;;;;17.60;57.18;95665.75;10398823;28;20527;-30
2023/12/21 21:31:49;;;;;;;5.53;1.40;;;;;;;17.60;57.40;95673.34;10403302;28;20288;-30
2023/12/21 21:36:50;;;;;;;3.10;1.03;;;;;;;17.59;57.80;95664.06;10399279;28;20033;-30
2023/12/21 21:41:50;;;;;;;2.30;1.17;;;;;;;17.58;58.08;95698.66;10404760;28;20072;-29
2023/12/21 21:46:51;;;;;;;6.40;2.08;;;;;;;17.57;58.02;95676.75;10396431;28;20840;-30
2023/12/21 21:51:51;;;;;;;7.93;1.80;;;;;;;17.56;57.50;95720.63;10405495;28;20036;-30
2023/12/21 21:56:53;;;;;;;4.25;1.30;;;;;;;17.56;58.15;95714.75;10396465;28;20499;-29
2023/12/21 22:01:53;;;;;;;3.20;1.42;;;;;;;17.56;58.21;95719.81;10403750;28;20423;-30
2023/12/21 22:06:54;;;;;;;3.97;1.60;;;;;;;17.55;57.40;95730.75;10404207;28;20044;-30
2023/12/21 22:11:54;;;;;;;2.33;0.80;;;;;;;17.54;57.52;95741.75;10402285;28;20095;-29
2023/12/21 22:16:54;;;;;;;2.83;1.40;;;;;;;17.53;57.43;95699.56;10403055;28;20041;-31
2023/12/21 22:21:56;;;;;;;3.97;0.90;;;;;;;17.53;57.68;95697.03;10404581;28;20038;-30
2023/12/21 22:26:57;;;;;;;3.03;1.08;;;;;;;17.54;58.45;95688.59;10401540;28;20029;-29
2023/12/21 22:31:57;;;;;;;3.00;1.90;;;;;;;17.53;58.26;95689.44;10395926;28;20033;-29
2023/12/21 22:36:57;;;;;;;3.47;1.17;;;;;;;17.53;57.90;95697.03;10393892;28;20037;-29
2023/12/21 22:41:58;;;;;;;1.03;0.80;;;;;;;17.53;57.68;95684.41;10399111;28;20052;-29
2023/12/21 22:46:58;;;;;;;2.67;0.70;;;;;;;17.48;57.94;95671.81;10398762;28;20108;-30
2023/12/21 22:51:58;;;;;;;2.37;1.30;;;;;;;17.51;58.31;95683.59;10389095;28;20671;-29
2023/12/21 22:56:59;;;;;;;4.07;1.43;;;;;;;17.50;58.08;95674.31;10398881;28;20026;-30
2023/12/21 23:01:59;;;;;;;3.90;1.10;;;;;;;17.45;57.66;95658.34;10401465;28;20045;-29
2023/12/21 23:06:59;;;;;;;2.67;0.97;;;;;;;17.52;58.09;95662.47;10406315;28;20041;-29
2023/12/21 23:12:00;;;;;;;4.60;1.47;;;;;;;17.49;57.85;95662.53;10403178;28;20099;-30
2023/12/21 23:17:00;;;;;;;2.58;1.02;;;;;;;17.50;58.18;95695.38;10401135;28;20991;-29